This is the latest recevied weather packets stored in our database for station/object IZ1BLA-10. If no packets are shown the sender has not sent any weather packets the latest 10 day(s).
| Time | Temp. | Humidity | Pressure | Rain* | Wind** | Luminosity | Snow |
|---|---|---|---|---|---|---|---|
| 1777760349 | 12.78° C | 69% | 1021.9 hPa | - | - | - | - |
| 1777759749 | 11.67° C | 75% | 1022.1 hPa | - | - | - | - |
| 1777759150 | 12.22° C | 71% | 1022 hPa | - | - | - | - |
| 1777758549 | 11.67° C | 72% | 1022.1 hPa | - | - | - | - |
| 1777757949 | 12.22° C | 71% | 1021.9 hPa | - | - | - | - |
| 1777757349 | 12.78° C | 71% | 1021.9 hPa | - | - | - | - |
| 1777756749 | 12.22° C | 76% | 1022 hPa | - | - | - | - |
| 1777756149 | 12.22° C | 76% | 1021.9 hPa | - | - | - | - |
| 1777755549 | 12.22° C | 75% | 1021.9 hPa | - | - | - | - |
| 1777754949 | 12.22° C | 75% | 1022 hPa | - | - | - | - |
| 1777754348 | 12.22° C | 78% | 1021.8 hPa | - | - | - | - |
| 1777753748 | 13.33° C | 73% | 1021.8 hPa | - | - | - | - |
| 1777753149 | 13.33° C | 72% | 1021.7 hPa | - | - | - | - |
| 1777752548 | 13.33° C | 71% | 1021.5 hPa | - | - | - | - |
| 1777751952 | 13.89° C | 71% | 1021.4 hPa | - | - | - | - |
| 1777751348 | 13.89° C | 70% | 1021.4 hPa | - | - | - | - |
| 1777750748 | 13.89° C | 69% | 1021.3 hPa | - | - | - | - |
| 1777750148 | 15° C | 66% | 1021.1 hPa | - | - | - | - |
| 1777749548 | 15° C | 65% | 1020.8 hPa | - | - | - | - |
| 1777748949 | 15.56° C | 62% | 1020.5 hPa | - | - | - | - |
| 1777748349 | 16.67° C | 58% | 1020 hPa | - | - | - | - |
| 1777747748 | 17.78° C | 53% | 1019.6 hPa | - | - | - | - |
| 1777747148 | 20° C | 47% | 1018.9 hPa | - | - | - | - |
| 1777746548 | 20.56° C | 45% | 1018.7 hPa | - | - | - | - |
| 1777745948 | 21.11° C | 43% | 1018.4 hPa | - | - | - | - |
* Rain since midnight (hover to see other rain measurements)
** Current wind speed in m/s (hover to see current wind gust speed)